Time;durP1;ratioP1;P1;durP2;ratioP2;P2;SDS_P1;SDS_P2;PMS_P1;PMS_P2;Temp;Humidity;BMP_temperature;BMP_pressure;BME280_temperature;BME280_humidity;BME280_pressure;Samples;Min_cycle;Max_cycle;Signal;HPM_P1;HPM_P2
2021/04/09 00:00:24;;;;;;;;;;;20.20;41.10;;;;;;5050000;28;19916;-74
2021/04/09 00:02:50;;;;;;;;;;;20.20;41.10;;;;;;5048654;28;20241;-74
2021/04/09 00:05:17;;;;;;;;;;;20.20;40.80;;;;;;5054556;28;20243;-75
2021/04/09 00:07:44;;;;;;;;;;;20.30;39.50;;;;;;5054463;28;19920;-74
2021/04/09 00:10:10;;;;;;;;;;;20.20;39.40;;;;;;5054004;28;19908;-74
2021/04/09 00:12:37;;;;;;;;;;;20.20;37.80;;;;;;5051359;28;19967;-74
2021/04/09 00:15:04;;;;;;;;;;;20.20;39.90;;;;;;5050011;28;20306;-74
2021/04/09 00:17:30;;;;;;;;;;;20.10;40.50;;;;;;5051982;28;19913;-74
2021/04/09 00:19:56;;;;;;;;;;;20.10;40.40;;;;;;5048070;28;20245;-74
2021/04/09 00:22:22;;;;;;;;;;;20.20;39.70;;;;;;5050876;28;20346;-74
2021/04/09 00:24:48;;;;;;;;;;;20.20;39.90;;;;;;5052206;28;20250;-73
2021/04/09 00:27:14;;;;;;;;;;;20.30;40.10;;;;;;5053240;28;19909;-73
2021/04/09 00:29:40;;;;;;;;;;;20.40;38.40;;;;;;5052042;28;19922;-73
2021/04/09 00:32:06;;;;;;;;;;;20.30;39.70;;;;;;5052733;28;19909;-73
2021/04/09 00:34:33;;;;;;;;;;;20.30;40.00;;;;;;5047137;28;19935;-74
2021/04/09 00:36:59;;;;;;;;;;;20.40;37.50;;;;;;5030461;28;20312;-73
2021/04/09 00:39:25;;;;;;;;;;;20.20;38.20;;;;;;5049035;28;20445;-73
2021/04/09 00:41:51;;;;;;;;;;;20.30;38.20;;;;;;5047416;28;19909;-74
2021/04/09 00:44:17;;;;;;;;;;;20.20;38.40;;;;;;5052211;28;20269;-73
2021/04/09 00:46:43;;;;;;;;;;;20.00;38.60;;;;;;5054478;28;20517;-74
2021/04/09 00:49:10;;;;;;;;;;;19.70;39.10;;;;;;5049861;28;19913;-74
2021/04/09 00:51:36;;;;;;;;;;;19.70;39.60;;;;;;5050693;28;19908;-74
2021/04/09 00:54:03;;;;;;;;;;;19.60;39.80;;;;;;5048982;28;19916;-73
2021/04/09 00:56:29;;;;;;;;;;;19.70;39.50;;;;;;5052339;28;19909;-74
2021/04/09 00:58:56;;;;;;;;;;;19.50;39.00;;;;;;5051318;28;19970;-73
2021/04/09 01:01:23;;;;;;;;;;;19.40;39.70;;;;;;5051750;28;19912;-74
2021/04/09 01:03:51;;;;;;;;;;;19.40;38.90;;;;;;5033949;28;19912;-73
2021/04/09 01:06:18;;;;;;;;;;;19.40;38.30;;;;;;5051793;28;19909;-75
2021/04/09 01:08:44;;;;;;;;;;;19.30;39.40;;;;;;5050163;28;20334;-74
2021/04/09 01:11:11;;;;;;;;;;;19.30;39.00;;;;;;5051204;28;19991;-74
2021/04/09 01:13:37;;;;;;;;;;;19.20;38.90;;;;;;5050293;28;19909;-74
2021/04/09 01:16:06;;;;;;;;;;;19.00;39.00;;;;;;5047850;28;19983;-75
2021/04/09 01:18:41;;;;;;;;;;;18.80;39.20;;;;;;5048681;28;19912;-73
2021/04/09 01:21:12;;;;;;;;;;;18.70;39.50;;;;;;5044953;28;19992;-75
2021/04/09 01:23:41;;;;;;;;;;;18.50;39.40;;;;;;5049439;28;19916;-74
2021/04/09 01:26:25;;;;;;;;;;;18.50;39.90;;;;;;5049551;28;19917;-74
2021/04/09 01:28:51;;;;;;;;;;;18.40;39.90;;;;;;5049043;28;20347;-74
2021/04/09 01:31:33;;;;;;;;;;;18.30;40.10;;;;;;5054229;28;19936;-75
2021/04/09 01:34:01;;;;;;;;;;;18.20;39.90;;;;;;5046859;28;19909;-75
2021/04/09 01:36:31;;;;;;;;;;;18.10;39.90;;;;;;5049114;28;19982;-75
2021/04/09 01:39:01;;;;;;;;;;;18.00;39.90;;;;;;5054190;28;19917;-74
2021/04/09 01:41:28;;;;;;;;;;;17.90;40.70;;;;;;5051334;28;19916;-74
2021/04/09 01:43:58;;;;;;;;;;;17.70;41.30;;;;;;5053569;28;19911;-74
2021/04/09 01:46:24;;;;;;;;;;;17.70;42.40;;;;;;5050069;28;20011;-76
2021/04/09 01:48:50;;;;;;;;;;;17.70;41.50;;;;;;5047359;28;19909;-76
2021/04/09 01:51:16;;;;;;;;;;;17.70;41.40;;;;;;5050678;28;19944;-76
2021/04/09 01:53:45;;;;;;;;;;;17.60;41.50;;;;;;5043191;28;19947;-76
2021/04/09 01:56:12;;;;;;;;;;;17.50;41.70;;;;;;5047197;28;19909;-76
2021/04/09 01:58:38;;;;;;;;;;;17.30;41.80;;;;;;5045494;28;20299;-76
2021/04/09 02:01:07;;;;;;;;;;;17.30;42.10;;;;;;5043052;28;19962;-77
2021/04/09 02:03:34;;;;;;;;;;;17.10;42.50;;;;;;5045912;28;19923;-77
2021/04/09 02:06:00;;;;;;;;;;;17.10;43.30;;;;;;5047416;28;20016;-78
2021/04/09 02:08:26;;;;;;;;;;;16.90;43.60;;;;;;5043740;28;19920;-77
2021/04/09 02:10:55;;;;;;;;;;;16.90;44.20;;;;;;5045980;28;19922;-77
2021/04/09 02:13:22;;;;;;;;;;;16.70;44.60;;;;;;5051446;28;19909;-77
2021/04/09 02:15:52;;;;;;;;;;;16.80;44.90;;;;;;5055673;28;19912;-77
2021/04/09 02:18:18;;;;;;;;;;;16.60;45.30;;;;;;5052618;28;20058;-77
2021/04/09 02:20:44;;;;;;;;;;;16.40;45.90;;;;;;5052143;28;19920;-77
2021/04/09 02:23:11;;;;;;;;;;;16.20;47.10;;;;;;5049598;28;19947;-76
2021/04/09 02:25:37;;;;;;;;;;;16.00;47.20;;;;;;5045768;28;19917;-76
2021/04/09 02:28:03;;;;;;;;;;;15.90;48.30;;;;;;5052951;28;20032;-77
2021/04/09 02:30:29;;;;;;;;;;;15.70;47.60;;;;;;5054927;28;19915;-77
2021/04/09 02:32:55;;;;;;;;;;;15.60;49.00;;;;;;5054821;28;19912;-76
2021/04/09 02:35:21;;;;;;;;;;;15.50;48.50;;;;;;5052875;28;19943;-77
2021/04/09 02:37:49;;;;;;;;;;;15.30;49.20;;;;;;5055414;28;19974;-77
2021/04/09 02:40:16;;;;;;;;;;;15.10;50.20;;;;;;5054967;28;19999;-77
2021/04/09 02:42:49;;;;;;;;;;;15.20;49.80;;;;;;5048405;28;20425;-78
2021/04/09 02:45:15;;;;;;;;;;;15.20;50.90;;;;;;5038296;28;20335;-76
2021/04/09 02:47:42;;;;;;;;;;;15.10;50.50;;;;;;5037768;28;20011;-77
2021/04/09 02:50:08;;;;;;;;;;;15.20;50.30;;;;;;5053585;28;19909;-77
2021/04/09 02:52:39;;;;;;;;;;;15.00;50.10;;;;;;5052181;28;19926;-77
2021/04/09 02:55:12;;;;;;;;;;;15.00;51.70;;;;;;5046178;28;20342;-77
2021/04/09 02:57:39;;;;;;;;;;;14.90;51.20;;;;;;5042737;28;19960;-77
2021/04/09 03:00:06;;;;;;;;;;;14.90;51.90;;;;;;5041787;28;19916;-77
2021/04/09 03:02:32;;;;;;;;;;;14.70;52.10;;;;;;5032867;28;20026;-76
2021/04/09 03:04:58;;;;;;;;;;;14.80;52.70;;;;;;5057177;28;19909;-77
2021/04/09 03:07:24;;;;;;;;;;;14.70;52.60;;;;;;5058072;28;20054;-77
2021/04/09 03:09:50;;;;;;;;;;;14.60;53.40;;;;;;5056943;28;20299;-77
2021/04/09 03:12:18;;;;;;;;;;;14.60;53.60;;;;;;5055148;28;19908;-76
2021/04/09 03:14:46;;;;;;;;;;;14.60;53.80;;;;;;5055061;28;19958;-76
2021/04/09 03:17:38;;;;;;;;;;;14.50;53.60;;;;;;5052629;28;20386;-76
2021/04/09 03:20:05;;;;;;;;;;;14.40;54.10;;;;;;5030592;28;20346;-76
2021/04/09 03:22:31;;;;;;;;;;;14.30;54.10;;;;;;5052861;28;20220;-77
2021/04/09 03:24:57;;;;;;;;;;;14.30;53.60;;;;;;5055971;28;19932;-76
2021/04/09 03:27:23;;;;;;;;;;;14.30;53.20;;;;;;5056108;28;19908;-77
2021/04/09 03:29:49;;;;;;;;;;;14.00;53.90;;;;;;5058300;28;19961;-75
2021/04/09 03:32:16;;;;;;;;;;;14.10;54.90;;;;;;5059344;28;19909;-75
2021/04/09 03:34:42;;;;;;;;;;;14.10;54.40;;;;;;5058502;28;19913;-77
2021/04/09 03:37:08;;;;;;;;;;;14.10;53.10;;;;;;5054183;28;19963;-76
2021/04/09 03:39:35;;;;;;;;;;;14.10;54.50;;;;;;5054129;28;19908;-76
2021/04/09 03:42:02;;;;;;;;;;;14.30;54.90;;;;;;5042865;28;19913;-77
2021/04/09 03:44:28;;;;;;;;;;;14.00;53.90;;;;;;5054622;28;20330;-76
2021/04/09 03:46:54;;;;;;;;;;;13.90;54.80;;;;;;5055694;28;19909;-77
2021/04/09 03:49:20;;;;;;;;;;;13.80;53.00;;;;;;5054023;28;19920;-77
2021/04/09 03:51:46;;;;;;;;;;;14.00;53.50;;;;;;5055828;28;19916;-77
2021/04/09 03:54:12;;;;;;;;;;;14.10;53.10;;;;;;5036976;28;19924;-77
2021/04/09 03:56:39;;;;;;;;;;;14.30;53.40;;;;;;5037727;28;19915;-77
2021/04/09 03:59:05;;;;;;;;;;;14.00;54.10;;;;;;5052701;28;19913;-77
2021/04/09 04:01:31;;;;;;;;;;;14.00;53.40;;;;;;5054136;28;19970;-77
2021/04/09 04:03:57;;;;;;;;;;;14.00;52.90;;;;;;5059512;28;19909;-77
2021/04/09 04:06:23;;;;;;;;;;;14.00;53.90;;;;;;5037239;28;19915;-76
2021/04/09 04:08:50;;;;;;;;;;;13.80;55.40;;;;;;5051685;28;19908;-77
2021/04/09 04:11:16;;;;;;;;;;;13.80;53.50;;;;;;5036632;28;19916;-77
2021/04/09 04:13:42;;;;;;;;;;;13.70;53.10;;;;;;5054925;28;19916;-77
2021/04/09 04:16:08;;;;;;;;;;;13.80;53.50;;;;;;5055064;28;19913;-77
2021/04/09 04:18:34;;;;;;;;;;;13.90;54.90;;;;;;5054604;28;19917;-77
2021/04/09 04:21:00;;;;;;;;;;;14.00;53.90;;;;;;5057738;28;19909;-77
2021/04/09 04:23:26;;;;;;;;;;;14.00;54.70;;;;;;5050515;28;19913;-77
2021/04/09 04:25:52;;;;;;;;;;;14.10;54.40;;;;;;5043283;28;19913;-77
2021/04/09 04:28:19;;;;;;;;;;;14.10;55.50;;;;;;5055402;28;20250;-77
2021/04/09 04:30:51;;;;;;;;;;;14.00;54.40;;;;;;5026285;28;19924;-77
2021/04/09 04:33:18;;;;;;;;;;;14.00;55.00;;;;;;5050293;28;19905;-76
2021/04/09 04:35:44;;;;;;;;;;;14.00;55.10;;;;;;5037602;28;20375;-76
2021/04/09 04:38:10;;;;;;;;;;;14.00;55.50;;;;;;5039014;28;19913;-77
2021/04/09 04:40:36;;;;;;;;;;;14.00;56.20;;;;;;5056508;28;20348;-76
2021/04/09 04:43:03;;;;;;;;;;;13.90;56.70;;;;;;5055814;28;19916;-77
2021/04/09 04:45:29;;;;;;;;;;;13.80;55.80;;;;;;5055573;28;20266;-77
2021/04/09 04:47:55;;;;;;;;;;;13.80;56.10;;;;;;5055243;28;19909;-75
2021/04/09 04:50:21;;;;;;;;;;;13.70;55.10;;;;;;5054514;28;19916;-77
2021/04/09 04:52:47;;;;;;;;;;;13.70;55.70;;;;;;5053013;28;19916;-77
2021/04/09 04:55:13;;;;;;;;;;;13.80;56.10;;;;;;5053839;28;19920;-77
2021/04/09 04:57:39;;;;;;;;;;;13.70;56.00;;;;;;5052504;28;19913;-77
2021/04/09 05:00:05;;;;;;;;;;;13.80;55.40;;;;;;5047336;28;19909;-76
2021/04/09 05:02:32;;;;;;;;;;;13.80;55.60;;;;;;5056761;28;19995;-77
2021/04/09 05:04:58;;;;;;;;;;;13.60;56.20;;;;;;5050950;28;20377;-76
2021/04/09 05:07:24;;;;;;;;;;;13.80;56.30;;;;;;5036942;28;20278;-76
2021/04/09 05:09:50;;;;;;;;;;;13.80;56.50;;;;;;5052516;28;19968;-78
2021/04/09 05:12:16;;;;;;;;;;;13.70;55.50;;;;;;5028012;28;19916;-77
2021/04/09 05:14:42;;;;;;;;;;;13.60;56.30;;;;;;5054618;28;19937;-76
2021/04/09 05:17:08;;;;;;;;;;;13.60;55.80;;;;;;5050131;28;19908;-78
2021/04/09 05:19:34;;;;;;;;;;;13.70;56.80;;;;;;5034001;28;19909;-77
2021/04/09 05:22:00;;;;;;;;;;;13.70;57.30;;;;;;5052283;28;19950;-76
2021/04/09 05:24:26;;;;;;;;;;;13.70;57.00;;;;;;5052469;28;19909;-77
2021/04/09 05:26:52;;;;;;;;;;;13.60;57.30;;;;;;5053670;28;19913;-75
2021/04/09 05:29:18;;;;;;;;;;;13.50;57.30;;;;;;5025778;28;19913;-77
2021/04/09 05:31:44;;;;;;;;;;;13.70;56.70;;;;;;5045966;28;19909;-76
2021/04/09 05:34:10;;;;;;;;;;;13.80;57.50;;;;;;5037330;28;19913;-77
2021/04/09 05:36:36;;;;;;;;;;;13.80;57.30;;;;;;5034530;28;19915;-76
2021/04/09 05:39:03;;;;;;;;;;;13.80;57.50;;;;;;5040211;28;19921;-77
2021/04/09 05:41:29;;;;;;;;;;;13.80;57.30;;;;;;5036297;28;20374;-76
2021/04/09 05:43:55;;;;;;;;;;;13.80;57.60;;;;;;5038487;28;19905;-76
2021/04/09 05:46:21;;;;;;;;;;;13.80;57.00;;;;;;5056912;28;19919;-77
2021/04/09 05:48:47;;;;;;;;;;;13.80;56.80;;;;;;5048579;28;19908;-77
2021/04/09 05:51:13;;;;;;;;;;;13.60;56.80;;;;;;5038901;28;20334;-76
2021/04/09 05:53:39;;;;;;;;;;;13.80;56.80;;;;;;5048930;28;19909;-76
2021/04/09 05:56:06;;;;;;;;;;;13.60;56.80;;;;;;5054767;28;19955;-77
2021/04/09 05:58:32;;;;;;;;;;;13.70;57.00;;;;;;5055465;28;19948;-77
2021/04/09 06:00:58;;;;;;;;;;;13.70;56.40;;;;;;5052513;28;19947;-77
2021/04/09 06:03:24;;;;;;;;;;;13.70;56.40;;;;;;5039071;28;19909;-77
2021/04/09 06:05:50;;;;;;;;;;;13.70;56.40;;;;;;5050663;28;20003;-77
2021/04/09 06:08:18;;;;;;;;;;;13.80;55.30;;;;;;5052683;28;20320;-76
2021/04/09 06:10:44;;;;;;;;;;;13.70;55.70;;;;;;5056449;28;19923;-76
2021/04/09 06:13:10;;;;;;;;;;;13.80;55.30;;;;;;5043491;28;19960;-76
2021/04/09 06:15:36;;;;;;;;;;;13.90;54.10;;;;;;5050943;28;19915;-76
2021/04/09 06:18:03;;;;;;;;;;;14.00;54.00;;;;;;5058319;28;20342;-77
2021/04/09 06:20:29;;;;;;;;;;;14.20;53.20;;;;;;5058072;28;20398;-76
2021/04/09 06:22:55;;;;;;;;;;;14.20;53.00;;;;;;5042734;28;19915;-77
2021/04/09 06:25:22;;;;;;;;;;;14.20;52.50;;;;;;5048816;28;19917;-77
2021/04/09 06:27:48;;;;;;;;;;;14.20;52.70;;;;;;5044374;28;19909;-77
2021/04/09 06:30:14;;;;;;;;;;;14.20;52.40;;;;;;5045442;28;19915;-76
2021/04/09 06:32:40;;;;;;;;;;;14.20;52.80;;;;;;5051554;28;19956;-77
2021/04/09 06:35:07;;;;;;;;;;;14.30;52.40;;;;;;5035823;28;20424;-77
2021/04/09 06:37:33;;;;;;;;;;;14.40;52.20;;;;;;5044720;28;19923;-76
2021/04/09 06:39:59;;;;;;;;;;;14.40;52.20;;;;;;5041050;28;19919;-76
2021/04/09 06:42:25;;;;;;;;;;;14.30;52.30;;;;;;5051697;28;19913;-76
2021/04/09 06:44:51;;;;;;;;;;;14.30;52.50;;;;;;5055972;28;19913;-76
2021/04/09 06:47:20;;;;;;;;;;;14.30;52.30;;;;;;5047176;28;19909;-76
2021/04/09 06:49:46;;;;;;;;;;;14.30;51.90;;;;;;5056090;28;20329;-76
2021/04/09 06:52:13;;;;;;;;;;;14.30;52.30;;;;;;5052931;28;20274;-76
2021/04/09 06:54:42;;;;;;;;;;;14.40;51.40;;;;;;5037606;28;19905;-76
2021/04/09 06:57:10;;;;;;;;;;;14.40;51.60;;;;;;5043849;28;19909;-76
2021/04/09 06:59:39;;;;;;;;;;;14.50;51.50;;;;;;5057625;28;19931;-76
2021/04/09 07:02:06;;;;;;;;;;;14.50;51.80;;;;;;5023600;28;19932;-76
2021/04/09 07:04:34;;;;;;;;;;;14.50;52.60;;;;;;5043398;28;19915;-77
2021/04/09 07:07:06;;;;;;;;;;;14.40;53.50;;;;;;5038328;28;19909;-76
2021/04/09 07:09:32;;;;;;;;;;;14.40;53.60;;;;;;5020240;28;19910;-76
2021/04/09 07:11:59;;;;;;;;;;;14.20;54.40;;;;;;5051324;28;19920;-77
2021/04/09 07:14:43;;;;;;;;;;;14.30;54.50;;;;;;5038119;28;19954;-76
2021/04/09 07:17:09;;;;;;;;;;;14.20;54.20;;;;;;5057493;28;20250;-76
2021/04/09 07:19:35;;;;;;;;;;;14.00;54.60;;;;;;5059636;28;19904;-76
2021/04/09 07:22:03;;;;;;;;;;;14.20;54.80;;;;;;5044968;28;19913;-76
2021/04/09 07:24:29;;;;;;;;;;;14.10;55.00;;;;;;5042547;28;19909;-77
2021/04/09 07:26:56;;;;;;;;;;;14.00;54.20;;;;;;5051141;28;19932;-76
2021/04/09 07:29:31;;;;;;;;;;;13.90;55.00;;;;;;5056992;28;19987;-76
2021/04/09 07:32:17;;;;;;;;;;;13.90;55.10;;;;;;5056748;28;20343;-76
2021/04/09 07:35:04;;;;;;;;;;;13.90;55.00;;;;;;5056310;28;19909;-77
2021/04/09 07:37:47;;;;;;;;;;;13.90;54.90;;;;;;5037145;28;19913;-77
2021/04/09 07:40:15;;;;;;;;;;;13.70;55.00;;;;;;5029352;28;19996;-76
2021/04/09 07:42:41;;;;;;;;;;;13.60;55.30;;;;;;5056710;28;19908;-76
2021/04/09 07:45:11;;;;;;;;;;;13.60;54.90;;;;;;5056696;28;19961;-76
2021/04/09 07:47:39;;;;;;;;;;;13.60;55.50;;;;;;5044384;28;19909;-77
2021/04/09 07:50:10;;;;;;;;;;;13.50;55.40;;;;;;5055921;28;20323;-76
2021/04/09 07:52:43;;;;;;;;;;;13.40;55.40;;;;;;5056729;28;19905;-76
2021/04/09 07:55:10;;;;;;;;;;;13.40;55.40;;;;;;5046633;28;19909;-76
2021/04/09 07:57:36;;;;;;;;;;;13.20;55.20;;;;;;5036424;28;20011;-76
2021/04/09 08:00:15;;;;;;;;;;;13.30;55.50;;;;;;5030303;28;19951;-76
2021/04/09 08:02:41;;;;;;;;;;;13.30;54.90;;;;;;5076323;28;19912;-76
2021/04/09 08:05:07;;;;;;;;;;;13.30;54.90;;;;;;5066814;28;19915;-76
2021/04/09 08:07:35;;;;;;;;;;;13.30;54.80;;;;;;5055960;28;19909;-76
2021/04/09 08:10:01;;;;;;;;;;;13.30;54.60;;;;;;5048518;28;19917;-76
2021/04/09 08:12:28;;;;;;;;;;;13.10;54.40;;;;;;5037367;28;19915;-76
2021/04/09 08:14:54;;;;;;;;;;;13.00;54.70;;;;;;5037290;28;19909;-76
2021/04/09 08:17:21;;;;;;;;;;;12.90;54.80;;;;;;5035984;28;19913;-76
2021/04/09 08:19:54;;;;;;;;;;;12.90;54.80;;;;;;5039939;28;19964;-76
2021/04/09 08:22:21;;;;;;;;;;;12.90;54.80;;;;;;5055951;28;19959;-76
2021/04/09 08:24:48;;;;;;;;;;;12.90;55.30;;;;;;5052063;28;19912;-76
2021/04/09 08:27:14;;;;;;;;;;;12.90;55.20;;;;;;5036190;28;19981;-76
2021/04/09 08:29:41;;;;;;;;;;;12.80;55.10;;;;;;5023025;28;19909;-76
2021/04/09 08:32:08;;;;;;;;;;;12.70;55.50;;;;;;5055672;28;19940;-76
2021/04/09 08:34:34;;;;;;;;;;;12.80;55.80;;;;;;5054596;28;19905;-76
2021/04/09 08:37:01;;;;;;;;;;;12.70;56.20;;;;;;5035743;28;20060;-76
2021/04/09 08:39:27;;;;;;;;;;;12.70;55.50;;;;;;5038147;28;19905;-76
2021/04/09 08:41:55;;;;;;;;;;;12.70;56.80;;;;;;5054090;28;19908;-76
2021/04/09 08:44:21;;;;;;;;;;;12.60;57.40;;;;;;5035979;28;19905;-76
2021/04/09 08:46:47;;;;;;;;;;;12.50;57.90;;;;;;5035593;28;20000;-76
2021/04/09 08:49:14;;;;;;;;;;;12.60;59.10;;;;;;5035639;28;20008;-76
2021/04/09 08:51:42;;;;;;;;;;;12.70;57.20;;;;;;5053351;28;19909;-76
2021/04/09 08:54:28;;;;;;;;;;;12.60;57.40;;;;;;5055202;28;20319;-77
2021/04/09 08:56:54;;;;;;;;;;;12.70;56.70;;;;;;5035937;28;19905;-76
2021/04/09 08:59:38;;;;;;;;;;;12.80;56.40;;;;;;5047977;28;19913;-76
2021/04/09 09:02:18;;;;;;;;;;;12.90;57.00;;;;;;5055826;28;20433;-76
2021/04/09 09:05:01;;;;;;;;;;;12.90;56.40;;;;;;5055441;28;19904;-76
2021/04/09 09:07:45;;;;;;;;;;;12.80;56.90;;;;;;5055505;28;19906;-76
2021/04/09 09:10:30;;;;;;;;;;;12.90;56.30;;;;;;5044816;28;19909;-76
2021/04/09 09:13:05;;;;;;;;;;;12.80;56.40;;;;;;5049686;28;19904;-76
2021/04/09 09:15:46;;;;;;;;;;;12.90;56.20;;;;;;5039465;28;19905;-75
2021/04/09 09:18:24;;;;;;;;;;;13.00;56.20;;;;;;5045532;28;19940;-75
2021/04/09 09:21:03;;;;;;;;;;;13.20;56.70;;;;;;5046753;28;19908;-76
2021/04/09 09:23:58;;;;;;;;;;;13.20;56.30;;;;;;5059337;28;19905;-76
2021/04/09 09:26:29;;;;;;;;;;;13.30;56.00;;;;;;5026713;28;19909;-76
2021/04/09 09:29:08;;;;;;;;;;;13.30;56.50;;;;;;5049456;28;19955;-76
2021/04/09 09:31:35;;;;;;;;;;;13.40;56.40;;;;;;5056191;28;19944;-76
2021/04/09 09:34:19;;;;;;;;;;;13.20;56.40;;;;;;5058878;28;19909;-75
2021/04/09 09:37:07;;;;;;;;;;;13.20;56.70;;;;;;5058117;28;19916;-76
2021/04/09 09:39:33;;;;;;;;;;;13.20;57.40;;;;;;5058550;28;20265;-76
2021/04/09 09:41:59;;;;;;;;;;;13.10;56.60;;;;;;5059180;28;19909;-75
2021/04/09 09:44:29;;;;;;;;;;;13.10;57.70;;;;;;5058937;28;19923;-77
2021/04/09 09:47:00;;;;;;;;;;;13.20;57.60;;;;;;5053804;28;19916;-76
2021/04/09 09:49:27;;;;;;;;;;;13.20;56.80;;;;;;5058306;28;19909;-76
2021/04/09 09:51:53;;;;;;;;;;;13.10;57.40;;;;;;5058842;28;19996;-76
2021/04/09 09:54:24;;;;;;;;;;;13.00;57.10;;;;;;5058027;28;19950;-76
2021/04/09 09:56:51;;;;;;;;;;;13.00;57.60;;;;;;5058972;28;20238;-76
2021/04/09 09:59:18;;;;;;;;;;;13.10;57.70;;;;;;5058609;28;19909;-76
2021/04/09 10:01:50;;;;;;;;;;;13.10;56.80;;;;;;5052755;28;19916;-75
2021/04/09 10:04:16;;;;;;;;;;;13.10;57.50;;;;;;5057118;28;20254;-76
2021/04/09 10:06:46;;;;;;;;;;;13.20;56.90;;;;;;5051039;28;20358;-75
2021/04/09 10:09:12;;;;;;;;;;;13.20;57.20;;;;;;5038298;28;19971;-76
2021/04/09 10:11:45;;;;;;;;;;;13.10;57.30;;;;;;5039907;28;19909;-75
2021/04/09 10:14:11;;;;;;;;;;;13.10;57.70;;;;;;5032798;28;19909;-76
2021/04/09 10:16:37;;;;;;;;;;;13.00;57.90;;;;;;5057919;28;19916;-76
2021/04/09 10:19:07;;;;;;;;;;;13.00;58.00;;;;;;5046019;28;19917;-76
2021/04/09 10:21:34;;;;;;;;;;;13.00;58.00;;;;;;5041468;28;19913;-76
2021/04/09 10:24:08;;;;;;;;;;;12.90;57.80;;;;;;5058164;28;19912;-76
2021/04/09 10:26:35;;;;;;;;;;;12.80;57.30;;;;;;5057854;28;19988;-77
2021/04/09 10:29:02;;;;;;;;;;;12.90;58.00;;;;;;5057825;28;19927;-76
2021/04/09 10:31:28;;;;;;;;;;;12.90;57.70;;;;;;5052265;28;19916;-76
2021/04/09 10:33:55;;;;;;;;;;;12.90;57.90;;;;;;5020063;28;20008;-76
2021/04/09 10:36:23;;;;;;;;;;;12.70;57.80;;;;;;5038304;28;19992;-76
2021/04/09 10:38:53;;;;;;;;;;;12.60;58.00;;;;;;5057704;28;19912;-76
2021/04/09 10:41:24;;;;;;;;;;;12.50;58.10;;;;;;5046771;28;19911;-76
2021/04/09 10:44:12;;;;;;;;;;;12.50;58.10;;;;;;5057779;28;19909;-76
2021/04/09 10:46:42;;;;;;;;;;;12.50;58.40;;;;;;5037802;28;19909;-76
2021/04/09 10:49:10;;;;;;;;;;;12.60;58.10;;;;;;5037457;28;19905;-76
2021/04/09 10:51:41;;;;;;;;;;;12.60;57.50;;;;;;5049334;28;20007;-76
2021/04/09 10:54:08;;;;;;;;;;;12.60;57.80;;;;;;5057270;28;19912;-76
2021/04/09 10:56:34;;;;;;;;;;;12.50;57.80;;;;;;5037612;28;20262;-76
2021/04/09 10:59:01;;;;;;;;;;;12.50;58.30;;;;;;5044407;28;19956;-76
2021/04/09 11:01:27;;;;;;;;;;;12.40;57.80;;;;;;5045851;28;19913;-76
2021/04/09 11:03:54;;;;;;;;;;;12.40;57.90;;;;;;5057364;28;19912;-76
2021/04/09 11:06:22;;;;;;;;;;;12.50;58.60;;;;;;5057648;28;19916;-76
2021/04/09 11:08:58;;;;;;;;;;;12.50;59.20;;;;;;5038787;28;19904;-75
2021/04/09 11:11:29;;;;;;;;;;;12.30;58.40;;;;;;5036939;28;20385;-75
2021/04/09 11:14:02;;;;;;;;;;;12.20;58.30;;;;;;5041845;28;19941;-75
2021/04/09 11:16:28;;;;;;;;;;;12.10;60.00;;;;;;5037797;28;19920;-76
2021/04/09 11:18:55;;;;;;;;;;;12.10;58.90;;;;;;5036601;28;19912;-76
2021/04/09 11:21:44;;;;;;;;;;;12.20;58.50;;;;;;5037203;28;19991;-76
2021/04/09 11:24:11;;;;;;;;;;;12.30;58.30;;;;;;5031403;28;19935;-76
2021/04/09 11:26:38;;;;;;;;;;;12.30;59.60;;;;;;5037322;28;19976;-76
2021/04/09 11:29:04;;;;;;;;;;;12.20;60.70;;;;;;5048423;28;20573;-75
2021/04/09 11:31:30;;;;;;;;;;;12.50;59.80;;;;;;5056306;28;19916;-76
2021/04/09 11:34:02;;;;;;;;;;;12.50;59.40;;;;;;5039079;28;19905;-76
2021/04/09 11:36:28;;;;;;;;;;;12.50;59.30;;;;;;5056589;28;20246;-76
2021/04/09 11:39:20;;;;;;;;;;;12.30;59.20;;;;;;5056014;28;19913;-75
2021/04/09 11:41:54;;;;;;;;;;;12.10;59.60;;;;;;5053360;28;19951;-76
2021/04/09 11:44:34;;;;;;;;;;;12.20;59.40;;;;;;5056175;28;20349;-76
2021/04/09 11:47:10;;;;;;;;;;;12.00;59.90;;;;;;5019228;28;20426;-75
2021/04/09 11:49:36;;;;;;;;;;;12.00;59.50;;;;;;5055837;28;20082;-75
2021/04/09 11:52:03;;;;;;;;;;;12.10;60.30;;;;;;5056290;28;19912;-77
2021/04/09 11:54:30;;;;;;;;;;;12.20;60.30;;;;;;5056057;28;19915;-75
2021/04/09 11:56:58;;;;;;;;;;;12.20;60.50;;;;;;5055634;28;20274;-76
2021/04/09 11:59:25;;;;;;;;;;;12.50;59.90;;;;;;5055742;28;20290;-76
2021/04/09 12:01:51;;;;;;;;;;;12.10;60.40;;;;;;5052942;28;20326;-76
2021/04/09 12:04:36;;;;;;;;;;;12.30;60.70;;;;;;5059955;28;19944;-76
2021/04/09 12:07:04;;;;;;;;;;;12.30;59.80;;;;;;5055992;28;19909;-75
2021/04/09 12:09:30;;;;;;;;;;;12.40;59.80;;;;;;5055474;28;20007;-76
2021/04/09 12:11:56;;;;;;;;;;;12.50;59.50;;;;;;5037248;28;20385;-76
2021/04/09 12:14:33;;;;;;;;;;;12.30;59.10;;;;;;5037424;28;20090;-76
2021/04/09 12:16:59;;;;;;;;;;;12.30;59.50;;;;;;5036009;28;20361;-76
2021/04/09 12:19:25;;;;;;;;;;;12.10;59.90;;;;;;5035784;28;19913;-76
2021/04/09 12:21:51;;;;;;;;;;;12.00;60.10;;;;;;5035718;28;19913;-76
2021/04/09 12:24:17;;;;;;;;;;;12.00;59.30;;;;;;5048383;28;19955;-76
2021/04/09 12:26:43;;;;;;;;;;;12.00;59.30;;;;;;5037620;28;19920;-76
2021/04/09 12:29:10;;;;;;;;;;;12.00;59.20;;;;;;5047837;28;19940;-75
2021/04/09 12:31:37;;;;;;;;;;;12.00;60.20;;;;;;5050808;28;19909;-76
2021/04/09 12:34:03;;;;;;;;;;;12.00;59.40;;;;;;5038726;28;19909;-75
2021/04/09 12:36:30;;;;;;;;;;;11.80;60.20;;;;;;5035426;28;20228;-76
2021/04/09 12:38:56;;;;;;;;;;;11.90;59.50;;;;;;5018150;28;19966;-76
2021/04/09 12:41:22;;;;;;;;;;;11.90;59.90;;;;;;5020994;28;20331;-76
2021/04/09 12:43:51;;;;;;;;;;;11.90;60.70;;;;;;5035732;28;19909;-75
2021/04/09 12:46:17;;;;;;;;;;;12.10;60.10;;;;;;5035435;28;19931;-75
2021/04/09 12:48:43;;;;;;;;;;;12.20;61.20;;;;;;5035387;28;19956;-76
2021/04/09 12:51:09;;;;;;;;;;;12.20;60.80;;;;;;5035094;28;20262;-76
2021/04/09 12:53:35;;;;;;;;;;;12.10;60.70;;;;;;5054340;28;19909;-75
2021/04/09 12:56:01;;;;;;;;;;;12.10;61.00;;;;;;5054249;28;19970;-75
2021/04/09 12:58:27;;;;;;;;;;;12.00;60.30;;;;;;5052955;28;20224;-75
2021/04/09 13:00:53;;;;;;;;;;;12.10;61.10;;;;;;5046324;28;19909;-75
2021/04/09 13:03:19;;;;;;;;;;;12.10;60.90;;;;;;5056199;28;19913;-74
2021/04/09 13:05:45;;;;;;;;;;;12.30;61.10;;;;;;5057354;28;19904;-74
2021/04/09 13:08:15;;;;;;;;;;;12.30;60.90;;;;;;5039883;28;20003;-76
2021/04/09 13:10:41;;;;;;;;;;;12.40;60.90;;;;;;5046688;28;19913;-76
2021/04/09 13:13:07;;;;;;;;;;;12.30;61.70;;;;;;5037440;28;19909;-75
2021/04/09 13:15:33;;;;;;;;;;;12.30;61.10;;;;;;5035256;28;20003;-76
2021/04/09 13:17:59;;;;;;;;;;;12.40;61.40;;;;;;5034973;28;19951;-75
2021/04/09 13:20:25;;;;;;;;;;;12.40;60.80;;;;;;5035013;28;19917;-75
2021/04/09 13:22:51;;;;;;;;;;;12.40;60.70;;;;;;5042938;28;19909;-75
2021/04/09 13:25:17;;;;;;;;;;;12.40;60.90;;;;;;5042846;28;19913;-75
2021/04/09 13:27:43;;;;;;;;;;;12.50;60.80;;;;;;5053815;28;20019;-75
2021/04/09 13:30:09;;;;;;;;;;;12.50;61.30;;;;;;5054795;28;19909;-75
2021/04/09 13:32:35;;;;;;;;;;;12.50;61.00;;;;;;5054743;28;19934;-75
2021/04/09 13:35:02;;;;;;;;;;;12.50;61.00;;;;;;5026713;28;19924;-75
2021/04/09 13:37:29;;;;;;;;;;;12.60;60.70;;;;;;5034791;28;19927;-75
2021/04/09 13:39:55;;;;;;;;;;;12.50;61.10;;;;;;5042112;28;20250;-75
2021/04/09 13:42:21;;;;;;;;;;;12.60;60.50;;;;;;5054595;28;19909;-75
2021/04/09 13:44:47;;;;;;;;;;;12.70;60.50;;;;;;5054146;28;19916;-75
2021/04/09 13:47:13;;;;;;;;;;;12.80;60.20;;;;;;5048883;28;19934;-76
2021/04/09 13:49:39;;;;;;;;;;;12.60;60.50;;;;;;5037453;28;20270;-75
2021/04/09 13:52:05;;;;;;;;;;;12.80;60.00;;;;;;5047335;28;19915;-74
2021/04/09 13:54:31;;;;;;;;;;;12.70;60.00;;;;;;5054748;28;19991;-75
2021/04/09 13:56:57;;;;;;;;;;;13.00;59.90;;;;;;5045979;28;20007;-75
2021/04/09 13:59:23;;;;;;;;;;;12.90;59.50;;;;;;5054021;28;19908;-75
2021/04/09 14:01:49;;;;;;;;;;;12.60;60.30;;;;;;5047692;28;19952;-75
2021/04/09 14:04:15;;;;;;;;;;;12.50;61.10;;;;;;5052349;28;20369;-75
2021/04/09 14:06:42;;;;;;;;;;;12.60;60.50;;;;;;5056124;28;20003;-76
2021/04/09 14:09:08;;;;;;;;;;;12.70;60.20;;;;;;5039180;28;19927;-75
2021/04/09 14:11:34;;;;;;;;;;;12.80;59.90;;;;;;5057380;28;20340;-75
2021/04/09 14:14:00;;;;;;;;;;;12.80;59.70;;;;;;5054688;28;19995;-75
2021/04/09 14:16:26;;;;;;;;;;;12.60;60.00;;;;;;5054888;28;19957;-75
2021/04/09 14:18:52;;;;;;;;;;;12.60;60.30;;;;;;5050051;28;19967;-75
2021/04/09 14:21:18;;;;;;;;;;;12.70;60.50;;;;;;5057983;28;19905;-76